Terminal Aerodrome Forecast
Issued by NWS Brownsville, TX

Home | Current Version | Previous Version | Text Only | Print | Product List | Glossary On
Versions: 1 2 3 4 5 6 7 8 9 10 11 12 13 14 15 16 17 18 19 20 21 22
000
FTUS44 KBRO 291856 AAA
TAFMFE
TAF AMD
KMFE 291856Z 2919/3018 16014G22KT P6SM SKC
     FM300300 15012KT P6SM BKN020
     FM300600 15006KT 6SM HZ BKN015
      TEMPO 3008/3012 4SM HZ BKN010
     FM301500 15010G15KT P6SM SCT020=

USA.gov is the U.S. government's official web portal to all federal, state and local government web resources and services.